createdAt,value
2019-02-10T00:00:59.516Z,99.90
2019-02-10T00:03:28.423Z,99.90
2019-02-10T00:05:57.047Z,99.90
2019-02-10T00:08:25.434Z,99.90
2019-02-10T00:10:54.362Z,99.90
2019-02-10T00:13:27.656Z,99.90
2019-02-10T00:15:58.380Z,99.90
2019-02-10T00:18:26.952Z,99.90
2019-02-10T00:20:55.384Z,99.90
2019-02-10T00:23:23.839Z,99.90
2019-02-10T00:25:52.543Z,99.90
2019-02-10T00:28:21.061Z,99.90
2019-02-10T00:30:49.617Z,99.90
2019-02-10T00:33:18.054Z,99.90
2019-02-10T00:35:46.463Z,99.90
2019-02-10T00:38:15.263Z,99.90
2019-02-10T00:40:43.915Z,99.90
2019-02-10T00:43:12.700Z,99.90
2019-02-10T00:45:41.091Z,99.90
2019-02-10T00:48:10.655Z,99.90
2019-02-10T00:50:39.048Z,99.90
2019-02-10T00:53:07.609Z,99.90
2019-02-10T00:55:36.183Z,99.90
2019-02-10T00:58:04.835Z,99.90
2019-02-10T01:00:33.461Z,99.90
2019-02-10T01:03:01.982Z,99.90
2019-02-10T01:05:30.619Z,99.90
2019-02-10T01:07:59.222Z,99.90
2019-02-10T01:10:27.726Z,99.90
2019-02-10T01:12:56.283Z,99.90
2019-02-10T01:15:24.675Z,99.90
2019-02-10T01:17:53.538Z,99.90
2019-02-10T01:20:22.148Z,99.90
2019-02-10T01:22:50.708Z,99.90
2019-02-10T01:25:19.178Z,99.90
2019-02-10T01:27:47.838Z,99.90
2019-02-10T01:30:16.331Z,99.90
2019-02-10T01:32:44.996Z,99.90
2019-02-10T01:35:13.691Z,99.90
2019-02-10T01:37:42.301Z,99.90
2019-02-10T01:40:11.212Z,99.90
2019-02-10T01:42:39.867Z,99.90
2019-02-10T01:45:11.179Z,99.90
2019-02-10T01:47:39.598Z,99.90
2019-02-10T01:50:10.554Z,99.90
2019-02-10T01:52:39.077Z,99.90
2019-02-10T01:55:12.920Z,99.90
2019-02-10T01:57:41.311Z,99.90
2019-02-10T02:00:12.682Z,99.90
2019-02-10T02:02:41.332Z,99.90
2019-02-10T02:05:10.401Z,99.90
2019-02-10T02:07:38.948Z,99.90
2019-02-10T02:10:10.255Z,99.90
2019-02-10T02:12:38.798Z,99.90
2019-02-10T02:15:10.479Z,99.90
2019-02-10T02:17:38.910Z,99.90
2019-02-10T02:20:08.945Z,99.90
2019-02-10T02:22:37.395Z,99.90
2019-02-10T02:25:11.110Z,99.90
2019-02-10T02:27:40.721Z,99.90
2019-02-10T02:30:11.605Z,99.90
2019-02-10T02:32:40.495Z,99.90
2019-02-10T02:35:09.319Z,99.90
2019-02-10T02:37:37.775Z,99.90
2019-02-10T02:40:08.886Z,99.90
2019-02-10T02:42:37.616Z,99.90
2019-02-10T02:45:08.945Z,99.90
2019-02-10T02:47:37.515Z,99.90
2019-02-10T02:50:08.842Z,99.90
2019-02-10T02:52:38.295Z,99.90
2019-02-10T02:55:08.851Z,99.90
2019-02-10T02:57:37.240Z,99.90
2019-02-10T03:00:08.145Z,99.90
2019-02-10T03:02:36.796Z,99.90
2019-02-10T03:05:07.440Z,99.90
2019-02-10T03:07:36.090Z,99.90
2019-02-10T03:10:06.733Z,99.90
2019-02-10T03:12:35.305Z,99.90
2019-02-10T03:15:04.902Z,99.90
2019-02-10T03:17:33.469Z,99.90
2019-02-10T03:20:02.130Z,99.90
2019-02-10T03:22:30.851Z,99.90
2019-02-10T03:24:59.359Z,99.90
2019-02-10T03:27:28.005Z,99.90
2019-02-10T03:29:56.316Z,99.90
2019-02-10T03:32:25.038Z,99.90
2019-02-10T03:34:53.684Z,99.90
2019-02-10T03:37:27.299Z,99.90
2019-02-10T03:39:52.152Z,99.90
2019-02-10T03:42:20.544Z,99.90
2019-02-10T03:44:49.247Z,99.90
2019-02-10T03:47:17.836Z,99.90
2019-02-10T03:49:46.485Z,99.90
2019-02-10T03:52:14.875Z,99.90
2019-02-10T03:54:44.709Z,99.90
2019-02-10T03:57:13.207Z,99.90
2019-02-10T03:59:41.756Z,99.90
2019-02-10T04:02:10.520Z,99.90
2019-02-10T04:04:38.908Z,99.90
2019-02-10T04:07:07.512Z,99.90
2019-02-10T04:09:36.387Z,99.90
2019-02-10T04:12:05.064Z,99.90
2019-02-10T04:14:33.449Z,99.90
2019-02-10T04:17:02.078Z,99.90
2019-02-10T04:19:30.845Z,99.90
2019-02-10T04:21:59.250Z,99.90
2019-02-10T04:24:28.296Z,99.90
2019-02-10T04:26:56.983Z,99.90
2019-02-10T04:29:25.578Z,99.90
2019-02-10T04:31:54.115Z,99.90
2019-02-10T04:34:22.678Z,99.90
2019-02-10T04:36:51.268Z,99.90
2019-02-10T04:39:20.011Z,99.90
2019-02-10T04:41:48.432Z,99.90
2019-02-10T04:44:17.269Z,99.90
2019-02-10T04:46:45.808Z,99.90
2019-02-10T04:49:14.246Z,99.90
2019-02-10T04:51:42.911Z,99.90
2019-02-10T04:54:11.336Z,99.90
2019-02-10T04:56:40.983Z,99.90
2019-02-10T04:59:09.719Z,99.90
2019-02-10T05:01:38.160Z,99.90
2019-02-10T05:04:06.804Z,99.90
2019-02-10T05:06:35.397Z,99.90
2019-02-10T05:09:05.175Z,99.90
2019-02-10T05:11:33.791Z,99.90
2019-02-10T05:14:02.416Z,99.90
2019-02-10T05:16:30.847Z,99.90
2019-02-10T05:18:59.243Z,99.90
2019-02-10T05:21:28.123Z,99.90
2019-02-10T05:24:02.978Z,99.90
2019-02-10T05:26:27.184Z,99.90
2019-02-10T05:28:55.643Z,99.90
2019-02-10T05:31:24.149Z,99.90
2019-02-10T05:33:52.739Z,99.90
2019-02-10T05:36:21.132Z,99.90
2019-02-10T05:38:49.568Z,99.90
2019-02-10T05:41:17.963Z,99.90
2019-02-10T05:43:46.447Z,99.90
2019-02-10T05:46:14.898Z,99.90
2019-02-10T05:48:43.450Z,99.90
2019-02-10T05:51:12.109Z,99.90
2019-02-10T05:53:40.908Z,99.90
2019-02-10T05:56:09.470Z,99.90
2019-02-10T05:58:39.062Z,99.90
2019-02-10T06:01:44.128Z,99.90
2019-02-10T06:04:12.521Z,99.90
2019-02-10T06:06:41.086Z,99.90
2019-02-10T06:09:09.870Z,99.90
2019-02-10T06:11:38.341Z,99.90
2019-02-10T06:14:06.767Z,99.90
2019-02-10T06:16:35.503Z,99.90
2019-02-10T06:19:03.964Z,99.90
2019-02-10T06:21:32.628Z,99.90
2019-02-10T06:24:01.235Z,99.90
2019-02-10T06:26:29.802Z,99.90
2019-02-10T06:28:58.724Z,99.90
2019-02-10T06:31:27.597Z,99.90
2019-02-10T06:33:56.005Z,99.90
2019-02-10T06:36:24.675Z,99.90
2019-02-10T06:38:53.111Z,99.90
2019-02-10T06:41:21.606Z,99.90
2019-02-10T06:43:49.995Z,99.90
2019-02-10T06:46:18.438Z,99.90
2019-02-10T06:48:46.839Z,99.90
2019-02-10T06:51:15.556Z,99.90
2019-02-10T06:53:44.132Z,99.90
2019-02-10T06:56:12.692Z,99.90
2019-02-10T06:58:41.133Z,99.90
2019-02-10T07:01:12.472Z,99.90
2019-02-10T07:03:48.311Z,99.90
2019-02-10T07:06:16.766Z,99.90
2019-02-10T07:08:45.546Z,99.90
2019-02-10T07:11:14.111Z,99.90
2019-02-10T07:13:47.951Z,99.90
2019-02-10T07:16:34.459Z,99.90
2019-02-10T07:19:39.885Z,99.90
2019-02-10T07:22:28.142Z,99.90
2019-02-10T07:25:18.095Z,99.90
2019-02-10T07:28:01.491Z,99.90
2019-02-10T07:30:42.073Z,99.90
2019-02-10T07:33:16.889Z,99.90
2019-02-10T07:35:49.498Z,99.90
2019-02-10T07:38:38.543Z,99.90
2019-02-10T07:41:09.296Z,99.90
2019-02-10T07:43:57.485Z,99.90
2019-02-10T07:46:57.801Z,99.90
2019-02-10T07:49:53.845Z,99.90
2019-02-10T07:52:45.199Z,99.90
2019-02-10T07:55:25.836Z,99.90
2019-02-10T07:58:03.124Z,99.90
2019-02-10T08:00:52.576Z,99.90
2019-02-10T08:03:31.247Z,99.90
2019-02-10T08:06:14.728Z,99.90
2019-02-10T08:09:08.128Z,99.90
2019-02-10T08:11:49.042Z,99.90
2019-02-10T08:14:43.333Z,99.90
2019-02-10T08:17:20.704Z,99.90
2019-02-10T08:20:11.612Z,99.90
2019-02-10T08:23:01.547Z,99.90
2019-02-10T08:25:36.388Z,99.90
2019-02-10T08:28:16.903Z,99.90
2019-02-10T08:30:54.784Z,99.90
2019-02-10T08:33:29.280Z,99.90
2019-02-10T08:36:16.254Z,99.90
2019-02-10T08:38:54.602Z,99.90
2019-02-10T08:41:27.305Z,99.90
2019-02-10T08:44:04.631Z,99.90
2019-02-10T08:46:59.679Z,99.90
2019-02-10T08:49:43.081Z,99.90
2019-02-10T08:52:21.142Z,99.90
2019-02-10T08:54:49.662Z,99.90
2019-02-10T08:57:19.140Z,99.90
2019-02-10T08:59:47.874Z,99.90
2019-02-10T09:02:16.415Z,99.90
2019-02-10T09:04:45.101Z,99.90
2019-02-10T09:07:15.382Z,99.90
2019-02-10T09:09:44.311Z,99.90
2019-02-10T09:12:12.948Z,99.90
2019-02-10T09:14:41.540Z,99.90
2019-02-10T09:17:10.009Z,99.90
2019-02-10T09:19:38.511Z,99.90
2019-02-10T09:22:07.010Z,99.90
2019-02-10T09:24:35.462Z,99.90
2019-02-10T09:27:03.856Z,99.90
2019-02-10T09:29:33.925Z,99.90
2019-02-10T09:32:02.336Z,99.90
2019-02-10T09:34:30.892Z,99.90
2019-02-10T09:36:59.920Z,99.90
2019-02-10T09:39:28.447Z,99.90
2019-02-10T09:41:57.015Z,99.90
2019-02-10T09:44:25.510Z,99.90
2019-02-10T09:46:53.902Z,99.90
2019-02-10T09:49:24.656Z,99.90
2019-02-10T09:51:53.287Z,99.90
2019-02-10T09:54:21.866Z,99.90
2019-02-10T09:56:50.452Z,99.90
2019-02-10T09:59:20.495Z,99.90
2019-02-10T10:01:49.023Z,99.90
2019-02-10T10:04:17.684Z,99.90
2019-02-10T10:06:47.542Z,99.90
2019-02-10T10:09:19.512Z,99.90
2019-02-10T10:11:46.162Z,99.90
2019-02-10T10:14:14.638Z,99.90
2019-02-10T10:16:43.050Z,99.90
2019-02-10T10:19:11.524Z,99.90
2019-02-10T10:21:40.083Z,99.90
2019-02-10T10:24:08.543Z,99.90
2019-02-10T10:26:37.166Z,99.90
2019-02-10T10:29:05.808Z,99.90
2019-02-10T10:31:34.211Z,99.90
2019-02-10T10:34:02.728Z,99.90
2019-02-10T10:36:31.271Z,99.90
2019-02-10T10:38:59.829Z,99.90
2019-02-10T10:41:28.263Z,99.90
2019-02-10T10:43:56.826Z,99.90
2019-02-10T10:46:25.295Z,99.90
2019-02-10T10:48:54.234Z,98.30
2019-02-10T10:51:23.169Z,98.10
2019-02-10T10:53:52.836Z,97.10
2019-02-10T10:56:21.192Z,97.30
2019-02-10T10:58:49.671Z,97.10
2019-02-10T11:01:25.175Z,96.70
2019-02-10T11:03:48.116Z,94.80
2019-02-10T11:06:16.760Z,94.50
2019-02-10T11:08:46.175Z,93.90
2019-02-10T11:11:14.636Z,94.20
2019-02-10T11:13:43.062Z,93.10
2019-02-10T11:16:11.455Z,93.60
2019-02-10T11:18:41.464Z,94.00
2019-02-10T11:21:09.977Z,93.90
2019-02-10T11:23:38.677Z,94.00
2019-02-10T11:26:09.308Z,93.80
2019-02-10T11:28:37.855Z,94.40
2019-02-10T11:31:06.569Z,93.50
2019-02-10T11:33:35.592Z,94.00
2019-02-10T11:36:04.054Z,92.30
2019-02-10T11:38:32.725Z,91.70
2019-02-10T11:41:01.123Z,91.70
2019-02-10T11:43:31.652Z,90.10
2019-02-10T11:46:00.119Z,89.80
2019-02-10T11:48:28.535Z,87.30
2019-02-10T11:50:56.971Z,86.40
2019-02-10T11:53:26.079Z,89.10
2019-02-10T11:55:54.924Z,87.10
2019-02-10T11:58:23.365Z,87.60
2019-02-10T12:00:51.756Z,89.50
2019-02-10T12:03:20.496Z,90.20
2019-02-10T12:05:49.396Z,90.10
2019-02-10T12:08:17.794Z,91.10
2019-02-10T12:10:47.269Z,91.10
2019-02-10T12:13:15.940Z,90.70
2019-02-10T12:15:46.146Z,91.10
2019-02-10T12:18:14.607Z,91.60
2019-02-10T12:20:43.662Z,91.90
2019-02-10T12:23:12.422Z,91.90
2019-02-10T12:25:40.824Z,92.70
2019-02-10T12:28:09.951Z,93.10
2019-02-10T12:30:40.404Z,92.80
2019-02-10T12:33:08.784Z,93.20
2019-02-10T12:35:37.581Z,92.00
2019-02-10T12:38:05.985Z,92.00
2019-02-10T12:40:36.853Z,92.00
2019-02-10T12:43:05.316Z,91.10
2019-02-10T12:45:33.846Z,88.90
2019-02-10T12:48:03.885Z,85.80
2019-02-10T12:50:33.143Z,81.40
2019-02-10T12:53:02.389Z,81.30
2019-02-10T12:55:31.045Z,80.80
2019-02-10T12:58:01.951Z,81.50
2019-02-10T13:00:30.702Z,80.80
2019-02-10T13:03:02.424Z,83.30
2019-02-10T13:05:30.952Z,84.50
2019-02-10T13:07:59.569Z,82.90
2019-02-10T13:10:31.147Z,84.00
2019-02-10T13:13:01.223Z,87.40
2019-02-10T13:15:31.349Z,89.50
2019-02-10T13:18:00.289Z,90.90
2019-02-10T13:20:28.905Z,91.50
2019-02-10T13:22:57.461Z,92.00
2019-02-10T13:25:26.153Z,91.60
2019-02-10T13:27:54.847Z,91.00
2019-02-10T13:30:23.441Z,88.30
2019-02-10T13:32:51.987Z,79.20
2019-02-10T13:35:20.442Z,81.80
2019-02-10T13:37:49.178Z,83.70
2019-02-10T13:40:22.353Z,82.30
2019-02-10T13:42:51.526Z,83.50
2019-02-10T13:45:20.249Z,89.60
2019-02-10T13:47:49.000Z,91.50
2019-02-10T13:50:18.815Z,92.60
2019-02-10T13:52:47.365Z,93.30
2019-02-10T13:55:17.225Z,94.50
2019-02-10T13:57:45.944Z,95.40
2019-02-10T14:00:26.299Z,97.40
2019-02-10T14:02:54.940Z,96.80
2019-02-10T14:05:23.412Z,97.40
2019-02-10T14:07:53.776Z,97.40
2019-02-10T14:10:25.643Z,98.60
2019-02-10T14:12:53.174Z,99.20
2019-02-10T14:15:22.656Z,99.90
2019-02-10T14:17:51.093Z,99.90
2019-02-10T14:20:20.350Z,99.90
2019-02-10T14:22:49.049Z,99.90
2019-02-10T14:25:18.948Z,99.90
2019-02-10T14:27:47.437Z,99.90
2019-02-10T14:30:21.588Z,99.90
2019-02-10T14:32:50.467Z,99.90
2019-02-10T14:35:19.449Z,99.90
2019-02-10T14:37:48.206Z,99.90
2019-02-10T14:40:17.231Z,99.90
2019-02-10T14:42:49.477Z,99.90
2019-02-10T14:45:18.819Z,99.90
2019-02-10T14:47:48.433Z,99.90
2019-02-10T14:50:21.267Z,99.90
2019-02-10T14:52:49.960Z,99.90
2019-02-10T14:55:20.930Z,99.90
2019-02-10T14:57:49.826Z,99.90
2019-02-10T15:00:21.156Z,99.90
2019-02-10T15:02:50.255Z,99.90
2019-02-10T15:05:18.726Z,99.90
2019-02-10T15:07:47.814Z,99.90
2019-02-10T15:10:21.848Z,99.90
2019-02-10T15:12:50.503Z,99.90
2019-02-10T15:15:19.218Z,99.90
2019-02-10T15:17:48.806Z,99.90
2019-02-10T15:20:17.405Z,99.90
2019-02-10T15:22:46.529Z,99.90
2019-02-10T15:25:15.139Z,99.90
2019-02-10T15:27:47.592Z,99.90
2019-02-10T15:30:18.322Z,99.90
2019-02-10T15:32:47.153Z,99.90
2019-02-10T15:35:15.550Z,99.90
2019-02-10T15:37:44.124Z,99.90
2019-02-10T15:40:14.663Z,99.90
2019-02-10T15:42:44.765Z,99.90
2019-02-10T15:45:14.870Z,99.90
2019-02-10T15:47:44.523Z,99.90
2019-02-10T15:50:17.310Z,99.90
2019-02-10T15:52:48.660Z,99.90
2019-02-10T15:55:18.111Z,99.90
2019-02-10T15:57:48.347Z,99.90
2019-02-10T16:00:26.274Z,99.90
2019-02-10T16:02:55.568Z,99.90
2019-02-10T16:05:24.636Z,99.90
2019-02-10T16:07:55.076Z,99.90
2019-02-10T16:10:29.947Z,99.90
2019-02-10T16:12:58.442Z,99.90
2019-02-10T16:15:27.695Z,99.90
2019-02-10T16:17:56.187Z,99.90
2019-02-10T16:20:25.820Z,99.90
2019-02-10T16:22:54.310Z,99.90
2019-02-10T16:25:23.798Z,99.90
2019-02-10T16:27:52.409Z,99.90
2019-02-10T16:30:21.090Z,99.90
2019-02-10T16:32:50.435Z,99.90
2019-02-10T16:35:18.918Z,99.90
2019-02-10T16:37:47.496Z,99.90
2019-02-10T16:40:23.166Z,99.90
2019-02-10T16:42:51.922Z,99.90
2019-02-10T16:45:20.806Z,99.90
2019-02-10T16:47:49.696Z,99.90
2019-02-10T16:50:18.737Z,99.90
2019-02-10T16:52:47.237Z,99.90
2019-02-10T16:55:21.256Z,99.90
2019-02-10T16:57:50.516Z,99.90
2019-02-10T17:00:19.485Z,99.90
2019-02-10T17:02:48.389Z,99.90
2019-02-10T17:05:16.920Z,99.90
2019-02-10T17:07:45.484Z,99.90
2019-02-10T17:10:21.337Z,99.90
2019-02-10T17:12:50.272Z,99.90
2019-02-10T17:15:19.203Z,99.90
2019-02-10T17:17:47.756Z,99.90
2019-02-10T17:20:17.053Z,99.90
2019-02-10T17:22:46.396Z,99.90
2019-02-10T17:25:26.672Z,99.90
2019-02-10T17:27:55.505Z,99.90
2019-02-10T17:30:23.977Z,99.90
2019-02-10T17:32:52.931Z,99.90
2019-02-10T17:35:21.675Z,99.90
2019-02-10T17:37:50.255Z,99.90
2019-02-10T17:40:34.029Z,99.90
2019-02-10T17:43:03.125Z,99.90
2019-02-10T17:45:31.908Z,99.90
2019-02-10T17:48:00.524Z,99.90
2019-02-10T17:50:29.004Z,99.90
2019-02-10T17:52:57.644Z,99.90
2019-02-10T17:55:28.556Z,99.90
2019-02-10T17:57:57.273Z,99.90
2019-02-10T18:00:27.400Z,99.90
2019-02-10T18:02:55.828Z,99.90
2019-02-10T18:05:24.294Z,99.90
2019-02-10T18:07:53.353Z,99.90
2019-02-10T18:10:21.968Z,99.90
2019-02-10T18:12:50.810Z,99.90
2019-02-10T18:15:37.242Z,99.90
2019-02-10T18:18:12.851Z,99.90
2019-02-10T18:20:52.703Z,99.90
2019-02-10T18:23:37.692Z,99.90
2019-02-10T18:26:09.116Z,99.90
2019-02-10T18:28:55.643Z,99.90
2019-02-10T18:31:31.979Z,99.90
2019-02-10T18:34:05.078Z,99.90
2019-02-10T18:36:41.858Z,99.90
2019-02-10T18:39:14.941Z,99.90
2019-02-10T18:41:59.914Z,99.90
2019-02-10T18:44:35.754Z,99.90
2019-02-10T18:47:06.019Z,99.90
2019-02-10T18:49:36.452Z,99.90
2019-02-10T18:52:14.080Z,99.90
2019-02-10T18:54:52.322Z,99.90
2019-02-10T18:57:22.798Z,99.90
2019-02-10T18:59:52.870Z,99.90
2019-02-10T19:02:39.879Z,99.90
2019-02-10T19:05:09.993Z,99.90
2019-02-10T19:07:40.328Z,99.90
2019-02-10T19:10:13.211Z,99.90
2019-02-10T19:12:43.348Z,99.90
2019-02-10T19:15:28.590Z,99.90
2019-02-10T19:17:58.849Z,99.90
2019-02-10T19:20:29.179Z,99.90
2019-02-10T19:22:59.260Z,99.90
2019-02-10T19:25:35.128Z,99.90
2019-02-10T19:28:06.346Z,99.90
2019-02-10T19:30:52.973Z,99.90
2019-02-10T19:33:26.461Z,99.90
2019-02-10T19:36:13.269Z,99.90
2019-02-10T19:38:49.277Z,99.90
2019-02-10T19:41:31.556Z,99.90
2019-02-10T19:44:02.299Z,99.90
2019-02-10T19:46:32.610Z,99.90
2019-02-10T19:49:15.354Z,99.90
2019-02-10T19:51:48.517Z,99.90
2019-02-10T19:54:24.564Z,99.90
2019-02-10T19:56:57.160Z,99.90
2019-02-10T19:59:30.045Z,99.90
2019-02-10T20:02:06.369Z,99.90
2019-02-10T20:04:39.606Z,99.90
2019-02-10T20:07:15.686Z,99.90
2019-02-10T20:09:55.041Z,99.90
2019-02-10T20:12:27.247Z,99.90
2019-02-10T20:14:59.639Z,99.90
2019-02-10T20:17:29.748Z,99.90
2019-02-10T20:20:01.591Z,99.90
2019-02-10T20:22:37.561Z,99.90
2019-02-10T20:25:27.081Z,99.90
2019-02-10T20:27:57.500Z,99.90
2019-02-10T20:30:34.590Z,99.90
2019-02-10T20:33:08.026Z,99.90
2019-02-10T20:35:38.213Z,99.90
2019-02-10T20:38:08.429Z,99.90
2019-02-10T20:40:41.029Z,99.90
2019-02-10T20:43:17.327Z,99.90
2019-02-10T20:46:02.887Z,99.90
2019-02-10T20:48:34.948Z,99.90
2019-02-10T20:51:23.316Z,99.90
2019-02-10T20:54:05.359Z,99.90
2019-02-10T20:56:35.703Z,99.90
2019-02-10T20:59:05.755Z,99.90
2019-02-10T21:01:35.784Z,99.90
2019-02-10T21:04:16.039Z,99.90
2019-02-10T21:06:52.057Z,99.90
2019-02-10T21:09:24.924Z,99.90
2019-02-10T21:12:10.121Z,99.90
2019-02-10T21:14:40.218Z,99.90
2019-02-10T21:17:16.042Z,99.90
2019-02-10T21:19:55.106Z,99.90
2019-02-10T21:22:37.583Z,99.90
2019-02-10T21:25:09.678Z,99.90
2019-02-10T21:27:39.932Z,99.90
2019-02-10T21:30:28.693Z,99.90
2019-02-10T21:33:03.387Z,99.90
2019-02-10T21:35:33.770Z,99.90
2019-02-10T21:38:03.837Z,99.90
2019-02-10T21:40:40.165Z,99.90
2019-02-10T21:43:10.587Z,99.90
2019-02-10T21:45:40.654Z,99.90
2019-02-10T21:48:11.146Z,99.90
2019-02-10T21:50:39.673Z,99.90
2019-02-10T21:53:08.067Z,99.90
2019-02-10T21:55:36.511Z,99.90
2019-02-10T21:58:05.158Z,99.90
2019-02-10T22:00:33.786Z,99.90
2019-02-10T22:03:02.219Z,99.90
2019-02-10T22:05:30.730Z,99.90
2019-02-10T22:07:59.098Z,99.90
2019-02-10T22:10:27.526Z,99.90
2019-02-10T22:12:55.931Z,99.90
2019-02-10T22:15:24.464Z,99.90
2019-02-10T22:17:52.958Z,99.90
2019-02-10T22:20:21.569Z,99.90
2019-02-10T22:22:50.120Z,99.90
2019-02-10T22:25:18.538Z,99.90
2019-02-10T22:27:47.226Z,99.90
2019-02-10T22:30:16.551Z,99.90
2019-02-10T22:32:45.058Z,99.90
2019-02-10T22:35:14.800Z,99.90
2019-02-10T22:37:43.334Z,99.90
2019-02-10T22:40:12.350Z,99.90
2019-02-10T22:42:45.824Z,99.90
2019-02-10T22:45:12.564Z,99.90
2019-02-10T22:47:41.007Z,99.90
2019-02-10T22:50:14.260Z,99.90
2019-02-10T22:52:43.113Z,99.90
2019-02-10T22:55:11.582Z,99.90
2019-02-10T22:57:41.296Z,99.90
2019-02-10T23:00:38.671Z,99.90
2019-02-10T23:03:07.389Z,99.90
2019-02-10T23:05:36.050Z,99.90
2019-02-10T23:08:04.544Z,99.90
2019-02-10T23:10:32.944Z,99.90
2019-02-10T23:13:01.691Z,99.90
2019-02-10T23:15:30.121Z,99.90
2019-02-10T23:18:01.494Z,99.90
2019-02-10T23:20:29.885Z,99.90
2019-02-10T23:22:58.599Z,99.90
2019-02-10T23:25:27.587Z,99.90
2019-02-10T23:27:56.348Z,99.90
2019-02-10T23:30:24.783Z,99.90
2019-02-10T23:32:53.546Z,99.90
2019-02-10T23:35:22.445Z,99.90
2019-02-10T23:37:51.831Z,99.90
2019-02-10T23:40:20.531Z,99.90
2019-02-10T23:42:48.919Z,99.90
2019-02-10T23:45:17.556Z,99.90
2019-02-10T23:47:45.956Z,99.90
2019-02-10T23:50:14.348Z,99.90
2019-02-10T23:52:43.262Z,99.90
2019-02-10T23:55:11.820Z,99.90
2019-02-10T23:57:40.443Z,99.90
